createdAt,value
2023-07-29T00:00:04.951Z,0
2023-07-29T00:01:21.255Z,0
2023-07-29T00:02:37.542Z,0
2023-07-29T00:03:53.826Z,0
2023-07-29T00:05:10.125Z,0
2023-07-29T00:06:26.421Z,0
2023-07-29T00:07:42.689Z,0
2023-07-29T00:08:58.013Z,0
2023-07-29T00:10:14.303Z,0
2023-07-29T00:11:30.610Z,0
2023-07-29T00:12:46.903Z,0
2023-07-29T00:14:03.182Z,0
2023-07-29T00:15:19.471Z,0
2023-07-29T00:16:35.765Z,0
2023-07-29T00:17:52.046Z,0
2023-07-29T00:19:08.363Z,0
2023-07-29T00:20:24.657Z,0
2023-07-29T00:21:40.948Z,0
2023-07-29T00:22:57.249Z,0
2023-07-29T00:24:13.524Z,0
2023-07-29T00:25:29.941Z,0
2023-07-29T00:26:46.244Z,0
2023-07-29T00:28:02.531Z,0
2023-07-29T00:29:18.818Z,0
2023-07-29T00:30:35.125Z,0
2023-07-29T00:31:51.403Z,0
2023-07-29T00:33:07.715Z,0
2023-07-29T00:34:24.003Z,0
2023-07-29T00:35:40.274Z,0
2023-07-29T00:36:56.575Z,0
2023-07-29T00:38:12.875Z,0
2023-07-29T00:39:29.165Z,0
2023-07-29T00:40:45.459Z,0
2023-07-29T00:42:00.772Z,0
2023-07-29T00:43:17.062Z,0
2023-07-29T00:44:33.365Z,0
2023-07-29T00:45:49.624Z,0
2023-07-29T00:47:05.944Z,0
2023-07-29T00:48:22.242Z,0
2023-07-29T00:49:38.517Z,0
2023-07-29T00:50:54.820Z,0
2023-07-29T00:52:11.110Z,0
2023-07-29T00:53:27.406Z,0
2023-07-29T00:54:43.695Z,0
2023-07-29T00:55:59.996Z,0
2023-07-29T00:57:16.285Z,0
2023-07-29T00:58:32.581Z,0
2023-07-29T00:59:47.891Z,0
2023-07-29T01:01:04.179Z,0
2023-07-29T01:02:20.480Z,0
2023-07-29T01:03:36.772Z,0
2023-07-29T01:04:53.059Z,0
2023-07-29T01:06:09.346Z,0
2023-07-29T01:07:25.641Z,0
2023-07-29T01:08:41.918Z,0
2023-07-29T01:09:58.224Z,0
2023-07-29T01:11:14.515Z,0
2023-07-29T01:12:30.805Z,0
2023-07-29T01:13:47.097Z,0
2023-07-29T01:15:03.388Z,0
2023-07-29T01:16:19.814Z,0
2023-07-29T01:17:36.097Z,0
2023-07-29T01:18:52.399Z,0
2023-07-29T01:20:08.699Z,0
2023-07-29T01:21:24.967Z,0
2023-07-29T01:22:41.271Z,0
2023-07-29T01:23:57.562Z,0
2023-07-29T01:25:13.869Z,0
2023-07-29T01:26:30.162Z,0
2023-07-29T01:27:46.442Z,0
2023-07-29T01:29:02.730Z,0
2023-07-29T01:30:19.028Z,0
2023-07-29T01:31:35.329Z,0
2023-07-29T01:32:50.639Z,0
2023-07-29T01:34:06.909Z,0
2023-07-29T01:35:23.230Z,0
2023-07-29T01:36:39.499Z,0
2023-07-29T01:37:55.798Z,0
2023-07-29T01:39:12.090Z,0
2023-07-29T01:40:28.386Z,0
2023-07-29T01:41:44.689Z,0
2023-07-29T01:43:00.979Z,0
2023-07-29T01:44:17.263Z,0
2023-07-29T01:45:33.556Z,0
2023-07-29T01:46:49.843Z,0
2023-07-29T01:48:06.145Z,0
2023-07-29T01:49:21.458Z,0
2023-07-29T01:50:37.749Z,0
2023-07-29T01:51:54.040Z,0
2023-07-29T01:53:10.346Z,0
2023-07-29T01:54:26.625Z,0
2023-07-29T01:55:42.912Z,0
2023-07-29T01:56:59.213Z,0
2023-07-29T01:58:15.507Z,0
2023-07-29T01:59:31.769Z,0
2023-07-29T02:00:48.098Z,0
2023-07-29T02:02:04.383Z,0
2023-07-29T02:03:20.689Z,0
2023-07-29T02:04:36.972Z,0
2023-07-29T02:05:52.282Z,0
2023-07-29T02:07:08.565Z,0
2023-07-29T02:08:24.872Z,0
2023-07-29T02:09:41.127Z,0
2023-07-29T02:10:57.455Z,0
2023-07-29T02:12:13.749Z,0
2023-07-29T02:13:30.042Z,0
2023-07-29T02:14:46.340Z,0
2023-07-29T02:16:02.628Z,0
2023-07-29T02:17:18.922Z,0
2023-07-29T02:18:35.199Z,0
2023-07-29T02:19:51.511Z,0
2023-07-29T02:21:07.804Z,0
2023-07-29T02:22:23.111Z,0
2023-07-29T02:23:39.407Z,0
2023-07-29T02:24:55.687Z,0
2023-07-29T02:26:11.986Z,0
2023-07-29T02:27:28.278Z,0
2023-07-29T02:28:44.578Z,0
2023-07-29T02:30:00.867Z,0
2023-07-29T02:31:17.153Z,0
2023-07-29T02:32:33.446Z,0
2023-07-29T02:33:49.735Z,0
2023-07-29T02:35:06.024Z,0
2023-07-29T02:36:22.329Z,0
2023-07-29T02:37:38.619Z,0
2023-07-29T02:38:53.923Z,0
2023-07-29T02:40:10.210Z,0
2023-07-29T02:41:26.513Z,0
2023-07-29T02:42:42.795Z,0
2023-07-29T02:43:59.101Z,0
2023-07-29T02:45:15.392Z,0
2023-07-29T02:46:31.688Z,0
2023-07-29T02:47:47.947Z,0
2023-07-29T02:49:04.261Z,0
2023-07-29T02:50:20.552Z,0
2023-07-29T02:51:36.797Z,1
2023-07-29T02:52:53.058Z,1
2023-07-29T02:54:09.289Z,1
2023-07-29T02:55:24.545Z,1
2023-07-29T02:56:40.772Z,2
2023-07-29T02:57:57.009Z,2
2023-07-29T02:59:13.263Z,3
2023-07-29T03:00:29.491Z,3
2023-07-29T03:01:45.733Z,4
2023-07-29T03:03:01.983Z,7
2023-07-29T03:04:18.220Z,4
2023-07-29T03:05:34.446Z,8
2023-07-29T03:06:50.687Z,8
2023-07-29T03:08:06.924Z,12
2023-07-29T03:09:23.166Z,10
2023-07-29T03:10:39.406Z,15
2023-07-29T03:11:54.665Z,15
2023-07-29T03:13:10.911Z,17
2023-07-29T03:14:27.142Z,20
2023-07-29T03:15:43.375Z,25
2023-07-29T03:16:59.628Z,32
2023-07-29T03:18:15.852Z,34
2023-07-29T03:19:32.103Z,39
2023-07-29T03:20:48.334Z,46
2023-07-29T03:22:04.582Z,53
2023-07-29T03:23:20.815Z,62
2023-07-29T03:24:37.053Z,67
2023-07-29T03:25:53.288Z,77
2023-07-29T03:27:09.537Z,87
2023-07-29T03:28:24.781Z,94
2023-07-29T03:29:41.015Z,105
2023-07-29T03:30:57.255Z,121
2023-07-29T03:32:13.507Z,140
2023-07-29T03:33:29.741Z,157
2023-07-29T03:34:45.972Z,172
2023-07-29T03:36:02.227Z,190
2023-07-29T03:37:18.460Z,211
2023-07-29T03:38:34.668Z,236
2023-07-29T03:39:50.945Z,259
2023-07-29T03:41:07.153Z,281
2023-07-29T03:42:23.417Z,304
2023-07-29T03:43:39.629Z,334
2023-07-29T03:44:54.917Z,353
2023-07-29T03:46:11.152Z,380
2023-07-29T03:47:27.388Z,413
2023-07-29T03:48:43.645Z,439
2023-07-29T03:49:59.872Z,463
2023-07-29T03:51:15.130Z,492
2023-07-29T03:52:31.387Z,526
2023-07-29T03:53:47.629Z,562
2023-07-29T03:55:03.869Z,590
2023-07-29T03:56:20.108Z,616
2023-07-29T03:57:36.334Z,645
2023-07-29T03:58:52.573Z,672
2023-07-29T04:00:08.812Z,696
2023-07-29T04:01:25.055Z,727
2023-07-29T04:02:41.299Z,754
2023-07-29T04:03:57.539Z,785
2023-07-29T04:05:13.908Z,813
2023-07-29T04:06:30.139Z,848
2023-07-29T04:07:45.402Z,882
2023-07-29T04:09:01.627Z,918
2023-07-29T04:10:17.882Z,959
2023-07-29T04:11:34.126Z,1013
2023-07-29T04:12:50.363Z,1061
2023-07-29T04:14:06.591Z,1109
2023-07-29T04:15:22.835Z,1140
2023-07-29T04:16:39.041Z,1173
2023-07-29T04:17:55.316Z,1199
2023-07-29T04:19:11.520Z,1230
2023-07-29T04:20:27.793Z,1261
2023-07-29T04:21:44.044Z,1287
2023-07-29T04:23:00.269Z,1314
2023-07-29T04:24:15.497Z,1343
2023-07-29T04:25:31.769Z,1368
2023-07-29T04:26:48.014Z,1390
2023-07-29T04:28:04.251Z,1419
2023-07-29T04:29:20.487Z,1445
2023-07-29T04:30:36.725Z,1472
2023-07-29T04:31:52.956Z,1503
2023-07-29T04:33:09.197Z,1528
2023-07-29T04:34:25.416Z,1557
2023-07-29T04:35:41.678Z,1589
2023-07-29T04:36:57.911Z,1619
2023-07-29T04:38:14.159Z,1644
2023-07-29T04:39:30.390Z,1678
2023-07-29T04:40:45.648Z,1713
2023-07-29T04:42:01.896Z,1744
2023-07-29T04:43:18.135Z,1777
2023-07-29T04:44:34.360Z,1810
2023-07-29T04:45:50.618Z,1840
2023-07-29T04:47:06.851Z,1871
2023-07-29T04:48:23.087Z,1902
2023-07-29T04:49:39.320Z,1932
2023-07-29T04:50:55.574Z,1961
2023-07-29T04:53:28.043Z,2021
2023-07-29T04:54:44.293Z,2055
2023-07-29T04:56:00.529Z,2085
2023-07-29T04:57:15.789Z,2111
2023-07-29T04:58:32.027Z,2137
2023-07-29T04:59:48.261Z,2167
2023-07-29T05:01:04.506Z,2199
2023-07-29T05:02:20.730Z,2228
2023-07-29T05:03:36.974Z,2254
2023-07-29T05:04:53.212Z,2270
2023-07-29T05:06:09.458Z,2295
2023-07-29T05:07:25.697Z,2323
2023-07-29T05:08:41.927Z,2346
2023-07-29T05:09:58.146Z,2372
2023-07-29T05:11:14.404Z,2392
2023-07-29T05:12:30.664Z,2420
2023-07-29T05:13:45.906Z,2448
2023-07-29T05:15:02.145Z,2480
2023-07-29T05:16:18.389Z,2500
2023-07-29T05:17:34.618Z,2538
2023-07-29T05:18:50.857Z,2565
2023-07-29T05:20:07.101Z,2591
2023-07-29T05:21:23.346Z,2623
2023-07-29T05:22:39.573Z,2641
2023-07-29T05:23:55.829Z,2656
2023-07-29T05:25:12.059Z,2658
2023-07-29T05:26:28.290Z,2673
2023-07-29T05:27:44.535Z,2689
2023-07-29T05:29:00.774Z,2715
2023-07-29T05:30:16.042Z,2720
2023-07-29T05:31:32.272Z,2757
2023-07-29T05:32:48.505Z,2739
2023-07-29T05:34:04.742Z,2693
2023-07-29T05:35:20.995Z,2722
2023-07-29T05:36:37.230Z,2723
2023-07-29T05:37:53.469Z,2731
2023-07-29T05:39:09.699Z,2748
2023-07-29T05:40:25.937Z,2648
2023-07-29T05:41:42.176Z,2708
2023-07-29T05:42:58.421Z,2695
2023-07-29T05:44:14.655Z,2697
2023-07-29T05:45:30.892Z,2772
2023-07-29T05:46:46.160Z,2701
2023-07-29T05:48:02.381Z,2600
2023-07-29T05:49:18.623Z,2745
2023-07-29T05:50:34.872Z,2704
2023-07-29T05:51:51.106Z,2781
2023-07-29T05:53:07.345Z,2807
2023-07-29T05:54:23.582Z,2908
2023-07-29T05:55:39.815Z,2857
2023-07-29T05:56:56.066Z,2877
2023-07-29T05:58:12.308Z,2949
2023-07-29T05:59:28.549Z,3006
2023-07-29T06:00:44.780Z,3050
2023-07-29T06:02:01.026Z,3105
2023-07-29T06:03:16.284Z,3166
2023-07-29T06:04:32.525Z,3202
2023-07-29T06:05:48.759Z,3241
2023-07-29T06:07:04.990Z,3265
2023-07-29T06:08:21.209Z,3285
2023-07-29T06:09:37.464Z,3366
2023-07-29T06:10:53.721Z,3233
2023-07-29T06:12:09.942Z,3335
2023-07-29T06:13:26.197Z,3345
2023-07-29T06:14:42.437Z,3358
2023-07-29T06:15:58.663Z,3374
2023-07-29T06:17:14.920Z,3374
2023-07-29T06:18:31.144Z,3381
2023-07-29T06:19:46.405Z,3341
2023-07-29T06:21:02.649Z,3361
2023-07-29T06:22:18.882Z,3417
2023-07-29T06:23:35.130Z,3313
2023-07-29T06:24:51.364Z,3362
2023-07-29T06:26:07.602Z,3388
2023-07-29T06:27:23.840Z,3489
2023-07-29T06:28:40.074Z,3439
2023-07-29T06:29:56.313Z,3318
2023-07-29T06:31:12.519Z,3330
2023-07-29T06:32:28.795Z,3448
2023-07-29T06:33:45.025Z,3398
2023-07-29T06:35:01.279Z,3444
2023-07-29T06:36:16.535Z,3398
2023-07-29T06:37:32.775Z,3281
2023-07-29T06:38:49.017Z,3358
2023-07-29T06:40:05.248Z,3318
2023-07-29T06:41:21.481Z,3460
2023-07-29T06:42:37.730Z,3256
2023-07-29T06:43:53.935Z,3332
2023-07-29T06:45:10.172Z,3863
2023-07-29T06:46:26.457Z,3248
2023-07-29T06:47:42.679Z,3600
2023-07-29T06:48:58.933Z,3615
2023-07-29T06:50:15.155Z,3572
2023-07-29T06:51:31.371Z,3529
2023-07-29T06:52:46.667Z,3653
2023-07-29T06:54:02.893Z,3733
2023-07-29T06:55:19.148Z,3763
2023-07-29T06:56:35.383Z,3778
2023-07-29T06:57:51.617Z,3813
2023-07-29T06:59:07.854Z,3824
2023-07-29T07:00:24.089Z,4198
2023-07-29T07:01:40.335Z,3909
2023-07-29T07:02:56.586Z,3794
2023-07-29T07:04:12.774Z,3557
2023-07-29T07:05:29.046Z,3671
2023-07-29T07:06:45.282Z,3639
2023-07-29T07:08:01.532Z,3530
2023-07-29T07:09:16.749Z,4450
2023-07-29T07:10:33.024Z,4180
2023-07-29T07:11:49.279Z,4057
2023-07-29T07:13:05.500Z,4812
2023-07-29T07:14:21.741Z,4424
2023-07-29T07:15:37.975Z,4606
2023-07-29T07:16:54.226Z,5065
2023-07-29T07:18:10.461Z,5408
2023-07-29T07:19:26.712Z,4662
2023-07-29T07:20:42.951Z,5478
2023-07-29T07:21:59.139Z,5527
2023-07-29T07:23:15.412Z,5402
2023-07-29T07:24:31.660Z,5365
2023-07-29T07:25:46.918Z,5923
2023-07-29T07:27:03.156Z,5572
2023-07-29T07:28:19.386Z,5490
2023-07-29T07:29:35.622Z,5694
2023-07-29T07:30:51.870Z,5645
2023-07-29T07:32:08.105Z,5825
2023-07-29T07:33:24.351Z,5826
2023-07-29T07:34:40.581Z,5724
2023-07-29T07:35:56.839Z,5604
2023-07-29T07:37:13.070Z,5494
2023-07-29T07:38:29.318Z,5451
2023-07-29T07:39:45.546Z,5424
2023-07-29T07:41:01.794Z,5338
2023-07-29T07:42:17.029Z,5313
2023-07-29T07:43:33.280Z,5258
2023-07-29T07:44:49.522Z,5281
2023-07-29T07:46:05.766Z,5252
2023-07-29T07:47:21.968Z,5304
2023-07-29T07:48:38.237Z,5364
2023-07-29T07:49:54.485Z,5509
2023-07-29T07:51:10.724Z,5649
2023-07-29T07:52:26.960Z,5770
2023-07-29T07:53:43.185Z,5859
2023-07-29T07:54:59.387Z,5883
2023-07-29T07:56:15.680Z,6042
2023-07-29T07:57:31.920Z,6070
2023-07-29T07:58:47.173Z,6138
2023-07-29T08:00:03.417Z,6219
2023-07-29T08:01:19.623Z,6284
2023-07-29T08:02:35.844Z,6065
2023-07-29T08:03:52.133Z,5897
2023-07-29T08:05:08.376Z,5803
2023-07-29T08:06:23.629Z,5582
2023-07-29T08:07:39.867Z,5331
2023-07-29T08:08:56.100Z,5275
2023-07-29T08:10:12.357Z,5028
2023-07-29T08:11:28.595Z,4829
2023-07-29T08:12:44.837Z,5130
2023-07-29T08:14:01.060Z,5410
2023-07-29T08:15:17.314Z,5708
2023-07-29T08:16:33.557Z,5990
2023-07-29T08:17:49.797Z,5753
2023-07-29T08:19:06.024Z,5578
2023-07-29T08:20:22.223Z,5637
2023-07-29T08:21:38.510Z,5420
2023-07-29T08:22:53.753Z,5355
2023-07-29T08:24:09.995Z,5283
2023-07-29T08:25:26.233Z,5339
2023-07-29T08:26:42.473Z,5230
2023-07-29T08:27:58.716Z,5315
2023-07-29T08:29:14.968Z,5529
2023-07-29T08:30:31.196Z,5291
2023-07-29T08:31:47.436Z,5371
2023-07-29T08:33:03.677Z,5258
2023-07-29T08:34:19.913Z,5015
2023-07-29T08:35:36.161Z,4880
2023-07-29T08:36:52.389Z,4822
2023-07-29T08:38:08.626Z,4979
2023-07-29T08:39:23.897Z,4685
2023-07-29T08:40:40.135Z,4535
2023-07-29T08:41:56.383Z,4315
2023-07-29T08:43:12.604Z,3997
2023-07-29T08:44:28.852Z,3688
2023-07-29T08:45:45.042Z,3204
2023-07-29T08:47:01.334Z,2870
2023-07-29T08:48:17.580Z,2865
2023-07-29T08:49:33.806Z,3074
2023-07-29T08:50:50.002Z,3541
2023-07-29T08:52:06.278Z,4250
2023-07-29T08:53:22.521Z,4970
2023-07-29T08:54:38.722Z,5681
2023-07-29T08:55:54.021Z,5899
2023-07-29T08:57:10.258Z,5771
2023-07-29T08:58:26.497Z,5607
2023-07-29T08:59:42.733Z,5556
2023-07-29T09:00:58.930Z,5859
2023-07-29T09:02:15.209Z,5872
2023-07-29T09:03:31.461Z,5570
2023-07-29T09:04:47.699Z,5603
2023-07-29T09:06:03.943Z,5552
2023-07-29T09:07:20.170Z,5489
2023-07-29T09:08:36.369Z,6217
2023-07-29T09:09:52.643Z,6347
2023-07-29T09:11:08.887Z,6951
2023-07-29T09:12:24.149Z,6804
2023-07-29T09:13:40.397Z,7102
2023-07-29T09:14:56.626Z,6856
2023-07-29T09:16:12.823Z,6948
2023-07-29T09:17:29.098Z,6988
2023-07-29T09:18:45.340Z,6561
2023-07-29T09:20:01.589Z,6358
2023-07-29T09:21:17.816Z,6688
2023-07-29T09:22:34.050Z,7081
2023-07-29T09:23:50.303Z,7279
2023-07-29T09:25:06.540Z,7392
2023-07-29T09:26:22.729Z,7467
2023-07-29T09:27:39.018Z,7328
2023-07-29T09:28:54.263Z,7148
2023-07-29T09:30:10.511Z,6857
2023-07-29T09:31:26.751Z,6696
2023-07-29T09:33:59.220Z,6513
2023-07-29T09:35:15.465Z,6216
2023-07-29T09:36:31.718Z,5793
2023-07-29T09:37:47.953Z,5446
2023-07-29T09:39:04.147Z,4958
2023-07-29T09:40:20.420Z,4980
2023-07-29T09:41:36.664Z,5394
2023-07-29T09:42:52.908Z,5830
2023-07-29T09:44:09.144Z,6657
2023-07-29T09:45:24.393Z,7202
2023-07-29T09:46:40.638Z,7853
2023-07-29T09:47:56.884Z,8205
2023-07-29T09:49:13.127Z,8618
2023-07-29T09:50:29.353Z,8548
2023-07-29T09:51:45.601Z,8502
2023-07-29T09:53:01.824Z,8130
2023-07-29T09:54:18.077Z,8050
2023-07-29T09:55:34.266Z,7793
2023-07-29T09:56:50.551Z,7454
2023-07-29T09:58:06.790Z,7152
2023-07-29T09:59:23.024Z,6873
2023-07-29T10:00:39.270Z,6813
2023-07-29T10:01:54.532Z,6671
2023-07-29T10:03:10.768Z,6396
2023-07-29T10:04:27.015Z,6271
2023-07-29T10:05:43.249Z,6325
2023-07-29T10:06:59.475Z,6196
2023-07-29T10:08:15.730Z,5842
2023-07-29T10:09:31.910Z,5831
2023-07-29T10:10:48.205Z,5105
2023-07-29T10:12:04.442Z,4430
2023-07-29T10:13:20.680Z,3607
2023-07-29T10:14:36.922Z,3402
2023-07-29T10:15:53.157Z,4316
2023-07-29T10:17:09.402Z,5408
2023-07-29T10:18:24.656Z,6616
2023-07-29T10:19:40.902Z,7111
2023-07-29T10:20:57.132Z,7333
2023-07-29T10:22:13.365Z,7587
2023-07-29T10:23:29.610Z,7669
2023-07-29T10:24:45.838Z,7361
2023-07-29T10:26:02.095Z,7394
2023-07-29T10:27:18.317Z,7494
2023-07-29T10:28:34.572Z,7501
2023-07-29T10:29:50.796Z,7499
2023-07-29T10:31:07.050Z,7043
2023-07-29T10:32:23.292Z,6526
2023-07-29T10:33:39.528Z,6101
2023-07-29T10:34:54.776Z,6919
2023-07-29T10:36:11.010Z,7220
2023-07-29T10:37:27.264Z,6012
2023-07-29T10:38:43.497Z,6351
2023-07-29T10:39:59.743Z,5529
2023-07-29T10:41:15.970Z,5365
2023-07-29T10:42:32.211Z,5345
2023-07-29T10:43:48.457Z,5449
2023-07-29T10:45:04.697Z,4524
2023-07-29T10:46:20.941Z,3167
2023-07-29T10:47:37.175Z,3479
2023-07-29T10:48:53.416Z,4595
2023-07-29T10:50:09.638Z,5227
2023-07-29T10:51:24.915Z,5131
2023-07-29T10:52:41.150Z,5141
2023-07-29T10:53:57.380Z,4979
2023-07-29T10:55:13.612Z,4637
2023-07-29T10:56:29.849Z,4015
2023-07-29T10:57:46.044Z,4603
2023-07-29T10:59:02.332Z,5006
2023-07-29T11:00:18.570Z,4575
2023-07-29T11:01:34.818Z,4101
2023-07-29T11:02:51.047Z,4149
2023-07-29T11:04:07.298Z,6318
2023-07-29T11:05:23.524Z,6206
2023-07-29T11:06:39.764Z,5963
2023-07-29T11:07:55.032Z,5142
2023-07-29T11:09:11.268Z,6466
2023-07-29T11:10:27.496Z,8028
2023-07-29T11:11:43.748Z,6984
2023-07-29T11:12:59.992Z,6391
2023-07-29T11:14:16.174Z,7421
2023-07-29T11:15:32.457Z,6331
2023-07-29T11:16:48.701Z,5455
2023-07-29T11:18:04.945Z,6006
2023-07-29T11:19:21.170Z,6228
2023-07-29T11:20:37.426Z,5154
2023-07-29T11:23:09.850Z,4398
2023-07-29T11:24:25.157Z,4550
2023-07-29T11:25:41.340Z,5064
2023-07-29T11:26:57.622Z,5434
2023-07-29T11:28:13.862Z,5359
2023-07-29T11:29:30.106Z,6011
2023-07-29T11:30:46.345Z,5776
2023-07-29T11:32:02.593Z,5553
2023-07-29T11:33:18.777Z,6674
2023-07-29T11:34:35.070Z,7544
2023-07-29T11:35:51.309Z,6582
2023-07-29T11:37:07.551Z,5057
2023-07-29T11:38:23.775Z,5188
2023-07-29T11:39:40.020Z,6002
2023-07-29T11:40:55.278Z,6556
2023-07-29T11:43:27.776Z,6515
2023-07-29T11:44:43.993Z,6519
2023-07-29T11:46:00.225Z,6280
2023-07-29T11:47:16.472Z,6719
2023-07-29T11:48:32.714Z,6481
2023-07-29T11:51:05.139Z,7172
2023-07-29T11:52:21.436Z,7438
2023-07-29T11:53:37.660Z,7454
2023-07-29T11:54:53.900Z,7411
2023-07-29T11:56:10.153Z,7379
2023-07-29T11:57:25.396Z,7220
2023-07-29T11:58:41.643Z,7172
2023-07-29T11:59:57.880Z,6795
2023-07-29T12:01:14.122Z,6829
2023-07-29T12:02:30.356Z,6533
2023-07-29T12:03:46.545Z,6239
2023-07-29T12:05:02.844Z,5547
2023-07-29T12:06:19.087Z,5246
2023-07-29T12:07:35.306Z,5885
2023-07-29T12:08:51.551Z,6946
2023-07-29T12:10:07.801Z,6668
2023-07-29T12:11:24.046Z,5226
2023-07-29T12:12:40.272Z,7246
2023-07-29T12:13:55.531Z,8085
2023-07-29T12:15:11.769Z,7462
2023-07-29T12:16:27.958Z,6430
2023-07-29T12:17:44.252Z,5339
2023-07-29T12:19:00.493Z,5063
2023-07-29T12:20:16.722Z,5790
2023-07-29T12:21:31.995Z,6099
2023-07-29T12:22:48.226Z,5395
2023-07-29T12:24:04.480Z,6142
2023-07-29T12:25:20.719Z,6457
2023-07-29T12:26:36.959Z,6369
2023-07-29T12:27:53.179Z,7219
2023-07-29T12:29:09.424Z,7157
2023-07-29T12:30:25.671Z,6523
2023-07-29T12:31:41.916Z,5104
2023-07-29T12:32:58.151Z,4538
2023-07-29T12:34:14.384Z,5344
2023-07-29T12:35:30.634Z,5196
2023-07-29T12:36:46.869Z,4638
2023-07-29T12:38:02.117Z,3898
2023-07-29T12:39:18.352Z,4591
2023-07-29T12:40:34.606Z,6371
2023-07-29T12:41:50.832Z,7664
2023-07-29T12:43:07.070Z,6385
2023-07-29T12:44:23.326Z,5242
2023-07-29T12:45:39.563Z,5311
2023-07-29T12:46:55.790Z,5029
2023-07-29T12:49:28.278Z,6728
2023-07-29T12:50:44.509Z,7821
2023-07-29T12:52:00.746Z,8089
2023-07-29T12:53:17.004Z,8286
2023-07-29T12:54:32.246Z,8780
2023-07-29T12:55:48.490Z,9051
2023-07-29T12:57:04.740Z,8491
2023-07-29T12:58:20.972Z,7466
2023-07-29T12:59:37.212Z,7452
2023-07-29T13:00:53.441Z,7351
2023-07-29T13:02:09.696Z,8281
2023-07-29T13:03:25.938Z,9409
2023-07-29T13:04:42.000Z,8309
2023-07-29T13:05:58.401Z,7813
2023-07-29T13:07:14.643Z,6954
2023-07-29T13:08:30.895Z,5726
2023-07-29T13:09:47.126Z,5941
2023-07-29T13:11:02.381Z,6401
2023-07-29T13:12:18.611Z,6468
2023-07-29T13:13:34.858Z,7486
2023-07-29T13:14:51.105Z,7548
2023-07-29T13:17:23.575Z,8195
2023-07-29T13:18:39.808Z,8303
2023-07-29T13:19:56.062Z,7178
2023-07-29T13:21:12.289Z,7323
2023-07-29T13:22:28.529Z,6251
2023-07-29T13:23:44.776Z,6366
2023-07-29T13:25:01.005Z,7186
2023-07-29T13:26:17.253Z,6611
2023-07-29T13:27:33.616Z,6990
2023-07-29T13:28:49.855Z,6768
2023-07-29T13:30:06.087Z,6679
2023-07-29T13:31:22.334Z,6903
2023-07-29T13:32:38.569Z,6861
2023-07-29T13:33:54.817Z,6791
2023-07-29T13:35:11.057Z,6662
2023-07-29T13:36:27.284Z,6612
2023-07-29T13:37:43.544Z,6490
2023-07-29T13:38:59.773Z,6381
2023-07-29T13:40:15.957Z,6741
2023-07-29T13:41:32.244Z,6672
2023-07-29T13:42:48.491Z,6602
2023-07-29T13:44:03.744Z,6387
2023-07-29T13:45:19.982Z,6383
2023-07-29T13:46:36.218Z,7570
2023-07-29T13:47:52.471Z,7049
2023-07-29T13:49:08.710Z,5643
2023-07-29T13:50:24.954Z,6022
2023-07-29T13:51:41.190Z,6691
2023-07-29T13:52:57.414Z,7325
2023-07-29T13:54:13.663Z,6592
2023-07-29T13:55:29.901Z,6106
2023-07-29T13:56:46.144Z,5864
2023-07-29T13:58:02.380Z,5735
2023-07-29T13:59:18.632Z,6537
2023-07-29T14:00:33.880Z,6211
2023-07-29T14:01:50.110Z,5782
2023-07-29T14:03:06.362Z,6736
2023-07-29T14:04:22.536Z,6386
2023-07-29T14:05:38.834Z,6001
2023-07-29T14:06:55.076Z,5983
2023-07-29T14:08:11.316Z,5927
2023-07-29T14:09:27.543Z,5878
2023-07-29T14:10:43.791Z,5862
2023-07-29T14:11:59.972Z,6049
2023-07-29T14:13:16.278Z,6144
2023-07-29T14:14:32.506Z,6140
2023-07-29T14:15:48.757Z,6116
2023-07-29T14:17:03.997Z,6040
2023-07-29T14:18:20.252Z,7077
2023-07-29T14:19:36.486Z,4817
2023-07-29T14:20:52.731Z,7207
2023-07-29T14:22:08.971Z,6237
2023-07-29T14:23:25.205Z,5389
2023-07-29T14:24:41.448Z,5265
2023-07-29T14:25:57.679Z,6471
2023-07-29T14:27:13.913Z,7051
2023-07-29T14:28:30.155Z,7641
2023-07-29T14:29:46.391Z,7603
2023-07-29T14:31:02.635Z,8105
2023-07-29T14:32:18.871Z,4826
2023-07-29T14:33:34.127Z,5250
2023-07-29T14:34:50.377Z,5534
2023-07-29T14:36:06.609Z,6265
2023-07-29T14:37:22.852Z,4701
2023-07-29T14:38:39.097Z,4539
2023-07-29T14:39:55.326Z,3783
2023-07-29T14:41:11.569Z,7003
2023-07-29T14:42:27.815Z,5240
2023-07-29T14:43:44.051Z,4503
2023-07-29T14:45:00.281Z,4623
2023-07-29T14:46:16.528Z,4798
2023-07-29T14:47:32.770Z,4287
2023-07-29T14:48:49.010Z,3815
2023-07-29T14:50:04.261Z,3359
2023-07-29T14:51:20.507Z,3104
2023-07-29T14:52:36.753Z,2689
2023-07-29T14:53:52.988Z,2445
2023-07-29T14:55:09.222Z,2219
2023-07-29T14:57:41.698Z,1852
2023-07-29T14:58:57.937Z,1802
2023-07-29T15:00:14.174Z,1822
2023-07-29T15:01:30.420Z,1463
2023-07-29T15:02:46.655Z,1088
2023-07-29T15:04:02.898Z,700
2023-07-29T15:05:19.139Z,566
2023-07-29T15:06:34.329Z,797
2023-07-29T15:07:50.627Z,957
2023-07-29T15:09:06.880Z,757
2023-07-29T15:10:23.115Z,717
2023-07-29T15:11:39.349Z,1246
2023-07-29T15:12:55.587Z,1439
2023-07-29T15:14:11.841Z,1442
2023-07-29T15:15:28.069Z,1224
2023-07-29T15:16:44.312Z,963
2023-07-29T15:18:00.545Z,779
2023-07-29T15:19:16.792Z,745
2023-07-29T15:20:33.023Z,808
2023-07-29T15:21:49.279Z,804
2023-07-29T15:23:04.528Z,758
2023-07-29T15:24:20.767Z,677
2023-07-29T15:25:37.007Z,601
2023-07-29T15:26:53.188Z,536
2023-07-29T15:28:09.482Z,469
2023-07-29T15:29:25.724Z,422
2023-07-29T15:30:41.968Z,400
2023-07-29T15:31:58.190Z,397
2023-07-29T15:33:14.444Z,402
2023-07-29T15:34:30.684Z,446
2023-07-29T15:35:46.914Z,494
2023-07-29T15:37:03.159Z,543
2023-07-29T15:38:19.403Z,566
2023-07-29T15:39:35.761Z,607
2023-07-29T15:40:52.001Z,661
2023-07-29T15:42:08.234Z,752
2023-07-29T15:43:24.469Z,854
2023-07-29T15:44:40.716Z,955
2023-07-29T15:45:56.946Z,1071
2023-07-29T15:47:13.189Z,1161
2023-07-29T15:48:29.435Z,1252
2023-07-29T15:49:45.669Z,1337
2023-07-29T15:51:01.903Z,1397
2023-07-29T15:52:18.143Z,1450
2023-07-29T15:53:34.385Z,1491
2023-07-29T15:54:50.626Z,1469
2023-07-29T15:56:05.883Z,1417
2023-07-29T15:57:22.133Z,1442
2023-07-29T15:58:38.362Z,1488
2023-07-29T15:59:54.593Z,1498
2023-07-29T16:01:10.844Z,1452
2023-07-29T16:02:27.073Z,1503
2023-07-29T16:03:43.322Z,1800
2023-07-29T16:04:59.558Z,2566
2023-07-29T16:06:15.807Z,3559
2023-07-29T16:07:32.042Z,2766
2023-07-29T16:08:48.274Z,9092
2023-07-29T16:10:04.510Z,16445
2023-07-29T16:11:20.758Z,8583
2023-07-29T16:12:36.016Z,7122
2023-07-29T16:13:52.240Z,6797
2023-07-29T16:15:08.478Z,6722
2023-07-29T16:16:24.734Z,6919
2023-07-29T16:17:40.969Z,8714
2023-07-29T16:18:57.201Z,6813
2023-07-29T16:20:13.443Z,7103
2023-07-29T16:21:29.692Z,6993
2023-07-29T16:22:45.918Z,6381
2023-07-29T16:24:02.165Z,5483
2023-07-29T16:25:18.404Z,3590
2023-07-29T16:26:34.638Z,3358
2023-07-29T16:27:50.875Z,6562
2023-07-29T16:29:06.144Z,25231
2023-07-29T16:30:22.307Z,8922
2023-07-29T16:31:38.613Z,6849
2023-07-29T16:32:54.857Z,3127
2023-07-29T16:34:11.097Z,17725
2023-07-29T16:35:27.345Z,79483
2023-07-29T16:36:42.618Z,78946
2023-07-29T16:37:58.856Z,61883
2023-07-29T16:40:31.316Z,11809
2023-07-29T16:41:47.558Z,79074
2023-07-29T16:43:03.797Z,77958
2023-07-29T16:44:20.049Z,78369
2023-07-29T16:45:36.284Z,78505
2023-07-29T16:46:52.525Z,79708
2023-07-29T16:48:08.754Z,70394
2023-07-29T16:49:25.008Z,11905
2023-07-29T16:50:41.243Z,78519
2023-07-29T16:51:57.471Z,79481
2023-07-29T16:53:12.749Z,78608
2023-07-29T16:54:28.968Z,78230
2023-07-29T16:55:45.213Z,78227
2023-07-29T16:57:01.462Z,61239
2023-07-29T16:58:17.694Z,10786
2023-07-29T16:59:33.938Z,6458
2023-07-29T17:00:50.176Z,4819
2023-07-29T17:02:06.421Z,5013
2023-07-29T17:03:22.648Z,4700
2023-07-29T17:04:38.903Z,4230
2023-07-29T17:05:55.081Z,3806
2023-07-29T17:07:11.379Z,3840
2023-07-29T17:08:27.618Z,3374
2023-07-29T17:09:42.866Z,1603
2023-07-29T17:10:59.108Z,4551
2023-07-29T17:12:15.351Z,76602
2023-07-29T17:13:31.588Z,76846
2023-07-29T17:14:47.830Z,59157
2023-07-29T17:16:04.066Z,3754
2023-07-29T17:17:20.317Z,6201
2023-07-29T17:18:36.558Z,5948
2023-07-29T17:19:52.785Z,3783
2023-07-29T17:21:09.027Z,3411
2023-07-29T17:22:25.266Z,3043
2023-07-29T17:23:41.452Z,2154
2023-07-29T17:24:57.762Z,1632
2023-07-29T17:26:13.008Z,1358